Akron, Michigan
Current Conditions -  °F | °C
As of 2:34 AM on Thursday 23 Oct 2014 (Local Time) from KCFS Reporting Station
Clear Clear  
Wind Chill: 28°   Ceiling: Unl
Heat Index: 28°   Visibility: 10mi
Dew Point: 28°   Wind: 0mph
Humidity: 98%   Direction: NA
Pressure: 30.28"   Gusts: NA
Location:  43.57°N, 83.51°W
Report Text: KCFS 230634Z AUTO 00000KT 10SM CLR M02/M02 A3028 RMK AO2 T10201023
Loading
Personal Weather Stations






























Interactive Weather Map New forecast layout! Learn more

10-Day Weather Forecast

Advertisements
Track Severe Weather on mobile